createdAt,value
2023-02-16T00:00:04.260Z,1005.08
2023-02-16T00:05:03.269Z,1005.13
2023-02-16T00:10:04.252Z,1005.27
2023-02-16T00:15:03.267Z,1005.41
2023-02-16T00:20:04.204Z,1005.52
2023-02-16T00:25:03.157Z,1005.61
2023-02-16T00:30:04.051Z,1005.62
2023-02-16T00:35:03.113Z,1005.7
2023-02-16T00:40:04.118Z,1005.72
2023-02-16T00:45:03.057Z,1005.71
2023-02-16T00:50:04.127Z,1005.75
2023-02-16T00:55:03.180Z,1005.78
2023-02-16T01:00:04.028Z,1005.8
2023-02-16T01:05:03.232Z,1005.83
2023-02-16T01:10:04.194Z,1005.94
2023-02-16T01:15:03.262Z,1006.03
2023-02-16T01:20:04.263Z,1006.09
2023-02-16T01:25:03.233Z,1006.1
2023-02-16T01:30:04.138Z,1006.13
2023-02-16T01:35:03.097Z,1006.11
2023-02-16T01:40:04.347Z,1006.13
2023-02-16T01:45:03.091Z,1006.13
2023-02-16T01:50:04.246Z,1006.08
2023-02-16T01:55:03.217Z,1006.03
2023-02-16T02:00:04.104Z,1006.09
2023-02-16T02:05:03.000Z,1006.03
2023-02-16T02:10:04.115Z,1006.01
2023-02-16T02:15:03.057Z,1006.08
2023-02-16T02:20:04.170Z,1006.13
2023-02-16T02:25:03.114Z,1006.04
2023-02-16T02:30:04.133Z,1006.01
2023-02-16T02:35:03.053Z,1005.89
2023-02-16T02:40:04.080Z,1005.8
2023-02-16T02:45:03.092Z,1005.82
2023-02-16T02:50:04.054Z,1005.81
2023-02-16T02:55:03.156Z,1005.82
2023-02-16T03:00:06.225Z,1005.72
2023-02-16T03:05:03.063Z,1005.79
2023-02-16T03:10:04.004Z,1005.84
2023-02-16T03:15:03.092Z,1005.85
2023-02-16T03:20:04.086Z,1005.95
2023-02-16T03:25:03.113Z,1006.07
2023-02-16T03:30:04.169Z,1006.09
2023-02-16T03:35:03.151Z,1006.06
2023-02-16T03:40:04.075Z,1005.93
2023-02-16T03:45:03.105Z,1005.82
2023-02-16T03:50:03.853Z,1005.74
2023-02-16T03:55:03.109Z,1005.81
2023-02-16T04:00:04.136Z,1005.89
2023-02-16T04:05:03.054Z,1005.78
2023-02-16T04:10:04.674Z,1005.79
2023-02-16T04:15:03.079Z,1005.79
2023-02-16T04:20:04.075Z,1005.82
2023-02-16T04:25:03.054Z,1005.8
2023-02-16T04:30:04.235Z,1005.81
2023-02-16T04:35:03.074Z,1005.82
2023-02-16T04:40:05.002Z,1005.82
2023-02-16T04:45:03.102Z,1005.78
2023-02-16T04:50:04.134Z,1005.76
2023-02-16T04:55:03.101Z,1005.74
2023-02-16T05:00:04.178Z,1005.77
2023-02-16T05:05:03.099Z,1005.73
2023-02-16T05:10:04.125Z,1005.71
2023-02-16T05:15:03.012Z,1005.58
2023-02-16T05:20:04.098Z,1005.53
2023-02-16T05:25:03.119Z,1005.46
2023-02-16T05:30:04.267Z,1005.38
2023-02-16T05:35:03.286Z,1005.34
2023-02-16T05:40:04.124Z,1005.27
2023-02-16T05:45:03.043Z,1005.22
2023-02-16T05:50:04.139Z,1005.18
2023-02-16T05:55:03.231Z,1005.12
2023-02-16T06:00:04.145Z,1005.06
2023-02-16T06:05:03.235Z,1004.99
2023-02-16T06:10:04.115Z,1004.86
2023-02-16T06:15:03.177Z,1004.83
2023-02-16T06:20:04.050Z,1004.75
2023-02-16T06:25:03.082Z,1004.59
2023-02-16T06:30:04.297Z,1004.42
2023-02-16T06:35:03.120Z,1004.36
2023-02-16T06:40:03.967Z,1004.29
2023-02-16T06:45:03.161Z,1004.3
2023-02-16T06:50:04.143Z,1004.44
2023-02-16T06:55:03.086Z,1004.43
2023-02-16T07:00:04.143Z,1004.44
2023-02-16T07:05:03.152Z,1004.42
2023-02-16T07:10:04.052Z,1004.4
2023-02-16T07:15:03.039Z,1004.36
2023-02-16T07:20:03.952Z,1004.28
2023-02-16T07:25:03.114Z,1004.21
2023-02-16T07:30:04.292Z,1004.22
2023-02-16T07:35:03.097Z,1004.17
2023-02-16T07:40:04.189Z,1004.2
2023-02-16T07:45:03.035Z,1004.25
2023-02-16T07:50:04.180Z,1004.29
2023-02-16T07:55:03.146Z,1004.27
2023-02-16T08:00:04.108Z,1004.24
2023-02-16T08:05:03.041Z,1004.27
2023-02-16T08:10:04.122Z,1004.27
2023-02-16T08:15:03.093Z,1004.26
2023-02-16T08:20:04.078Z,1004.34
2023-02-16T08:25:03.558Z,1004.44
2023-02-16T08:30:04.170Z,1004.44
2023-02-16T08:35:03.035Z,1004.43
2023-02-16T08:40:04.083Z,1004.37
2023-02-16T08:45:03.115Z,1004.25
2023-02-16T08:50:04.120Z,1004.3
2023-02-16T08:55:03.126Z,1004.33
2023-02-16T09:00:04.008Z,1004.35
2023-02-16T09:05:03.210Z,1004.38
2023-02-16T09:10:04.132Z,1004.37
2023-02-16T09:15:04.132Z,1004.37
2023-02-16T09:20:05.103Z,1004.38
2023-02-16T09:25:03.236Z,1004.43
2023-02-16T09:30:04.197Z,1004.43
2023-02-16T09:35:03.159Z,1004.45
2023-02-16T09:40:04.162Z,1004.5
2023-02-16T09:45:03.084Z,1004.65
2023-02-16T09:50:04.040Z,1004.7
2023-02-16T09:55:03.039Z,1004.72
2023-02-16T10:00:04.112Z,1004.68
2023-02-16T10:05:02.991Z,1004.68
2023-02-16T10:10:04.129Z,1004.7
2023-02-16T10:15:03.130Z,1004.75
2023-02-16T10:20:04.066Z,1004.81
2023-02-16T10:25:03.187Z,1004.9
2023-02-16T10:30:04.072Z,1004.92
2023-02-16T10:35:03.056Z,1004.87
2023-02-16T10:40:04.080Z,1004.9
2023-02-16T10:45:03.058Z,1004.9
2023-02-16T10:50:04.096Z,1004.9
2023-02-16T10:55:03.138Z,1004.87
2023-02-16T11:00:05.173Z,1004.89
2023-02-16T11:05:03.094Z,1004.99
2023-02-16T11:10:03.985Z,1005.09
2023-02-16T11:15:03.202Z,1005.16
2023-02-16T11:20:04.017Z,1005.18
2023-02-16T11:25:03.076Z,1005.18
2023-02-16T11:30:04.192Z,1005.08
2023-02-16T11:35:03.039Z,1005.15
2023-02-16T11:40:03.987Z,1005.14
2023-02-16T11:45:03.231Z,1005.16
2023-02-16T11:50:04.106Z,1005.21
2023-02-16T11:55:03.272Z,1005.28
2023-02-16T12:00:04.211Z,1005.25
2023-02-16T12:05:03.030Z,1005.28
2023-02-16T12:10:04.018Z,1005.34
2023-02-16T12:15:03.089Z,1005.37
2023-02-16T12:20:04.061Z,1005.42
2023-02-16T12:25:03.083Z,1005.39
2023-02-16T12:30:15.845Z,1005.44
2023-02-16T12:35:03.182Z,1005.44
2023-02-16T12:40:04.032Z,1005.45
2023-02-16T12:45:03.157Z,1005.46
2023-02-16T12:50:04.121Z,1005.43
2023-02-16T12:55:03.204Z,1005.38
2023-02-16T13:00:05.335Z,1005.29
2023-02-16T13:05:03.181Z,1005.23
2023-02-16T13:10:04.263Z,1005.21
2023-02-16T13:15:03.152Z,1005.24
2023-02-16T13:20:04.888Z,1005.13
2023-02-16T13:25:03.137Z,1005.1
2023-02-16T13:30:04.329Z,1005.14
2023-02-16T13:35:03.166Z,1005.09
2023-02-16T13:40:04.158Z,1005.03
2023-02-16T13:45:03.091Z,1004.87
2023-02-16T13:50:11.729Z,1004.85
2023-02-16T13:55:03.170Z,1004.87
2023-02-16T14:00:04.114Z,1004.83
2023-02-16T14:05:03.178Z,1004.81
2023-02-16T14:10:04.106Z,1004.75
2023-02-16T14:15:03.068Z,1004.71
2023-02-16T14:20:04.175Z,1004.76
2023-02-16T14:25:03.213Z,1004.87
2023-02-16T14:30:04.055Z,1004.74
2023-02-16T14:35:03.159Z,1004.67
2023-02-16T14:40:07.999Z,1004.41
2023-02-16T14:45:03.078Z,1004.26
2023-02-16T14:50:04.151Z,1004.24
2023-02-16T14:55:03.091Z,1004.24
2023-02-16T15:00:04.173Z,1004.2
2023-02-16T15:05:03.116Z,1003.92
2023-02-16T15:10:04.166Z,1003.88
2023-02-16T15:15:03.102Z,1003.95
2023-02-16T15:20:04.177Z,1003.98
2023-02-16T15:25:03.117Z,1003.93
2023-02-16T15:30:04.143Z,1003.76
2023-02-16T15:35:03.097Z,1003.82
2023-02-16T15:40:24.799Z,1003.83
2023-02-16T15:45:03.126Z,1003.78
2023-02-16T15:50:04.257Z,1003.79
2023-02-16T15:55:03.112Z,1003.65
2023-02-16T16:00:04.085Z,1003.53
2023-02-16T16:05:03.311Z,1003.44
2023-02-16T16:10:04.219Z,1003.34
2023-02-16T16:15:03.016Z,1003.46
2023-02-16T16:20:04.039Z,1003.23
2023-02-16T16:25:03.048Z,1003.16
2023-02-16T16:30:04.159Z,1003.22
2023-02-16T16:35:03.083Z,1003.22
2023-02-16T16:40:04.161Z,1003.17
2023-02-16T16:45:04.487Z,1003.1
2023-02-16T16:50:04.076Z,1003.08
2023-02-16T16:55:03.123Z,1003.12
2023-02-16T17:00:04.123Z,1003.05
2023-02-16T17:05:03.131Z,1002.94
2023-02-16T17:10:04.197Z,1002.91
2023-02-16T17:15:03.122Z,1002.88
2023-02-16T17:20:09.133Z,1002.79
2023-02-16T17:25:03.162Z,1002.66
2023-02-16T17:30:04.248Z,1002.56
2023-02-16T17:35:03.130Z,1002.45
2023-02-16T17:40:06.303Z,1002.3
2023-02-16T17:45:03.089Z,1002.07
2023-02-16T17:50:04.042Z,1002.03
2023-02-16T17:55:03.072Z,1002.09
2023-02-16T18:00:04.139Z,1002.19
2023-02-16T18:05:03.247Z,1002.08
2023-02-16T18:10:04.104Z,1001.86
2023-02-16T18:15:03.094Z,1001.7
2023-02-16T18:20:04.221Z,1001.63
2023-02-16T18:25:03.086Z,1001.67
2023-02-16T18:30:04.295Z,1001.7
2023-02-16T18:35:03.063Z,1001.7
2023-02-16T18:40:04.495Z,1001.73
2023-02-16T18:45:03.055Z,1001.61
2023-02-16T18:50:04.187Z,1001.46
2023-02-16T18:55:03.034Z,1001.36
2023-02-16T19:00:04.125Z,1001.34
2023-02-16T19:05:03.129Z,1001.23
2023-02-16T19:10:04.057Z,1001.16
2023-02-16T19:15:04.137Z,1001.09
2023-02-16T19:20:04.152Z,1001.12
2023-02-16T19:25:03.173Z,1001.12
2023-02-16T19:30:04.285Z,1001.24
2023-02-16T19:35:03.136Z,1001.26
2023-02-16T19:40:04.086Z,1001.1
2023-02-16T19:45:02.997Z,1001.04
2023-02-16T19:50:04.196Z,1001.1
2023-02-16T19:55:03.050Z,1001.16
2023-02-16T20:00:04.145Z,1001.09
2023-02-16T20:05:03.076Z,1001.07
2023-02-16T20:10:04.087Z,1001.03
2023-02-16T20:15:03.028Z,1000.98
2023-02-16T20:20:04.152Z,1000.86
2023-02-16T20:25:03.211Z,1000.87
2023-02-16T20:30:04.247Z,1000.89
2023-02-16T20:35:03.124Z,1000.93
2023-02-16T20:40:04.290Z,1000.97
2023-02-16T20:45:03.021Z,1001.05
2023-02-16T20:50:04.060Z,1001.12
2023-02-16T20:55:03.068Z,1001.16
2023-02-16T21:00:04.188Z,1001.18
2023-02-16T21:05:03.111Z,1001.12
2023-02-16T21:10:04.168Z,1001.04
2023-02-16T21:15:03.160Z,1000.94
2023-02-16T21:20:04.141Z,1000.8
2023-02-16T21:25:03.125Z,1000.74
2023-02-16T21:30:04.105Z,1000.69
2023-02-16T21:35:03.029Z,1000.57
2023-02-16T21:40:05.274Z,1000.57
2023-02-16T21:45:03.102Z,1000.57
2023-02-16T21:50:04.214Z,1000.38
2023-02-16T21:55:03.199Z,1000.34
2023-02-16T22:00:04.362Z,1000.27
2023-02-16T22:05:03.213Z,1000.37
2023-02-16T22:10:04.183Z,1000.35
2023-02-16T22:15:03.093Z,1000.35
2023-02-16T22:20:04.124Z,1000.39
2023-02-16T22:25:03.105Z,1000.41
2023-02-16T22:30:04.657Z,1000.62
2023-02-16T22:35:03.141Z,1000.77
2023-02-16T22:40:04.267Z,1000.96
2023-02-16T22:45:03.249Z,1000.85
2023-02-16T22:50:04.271Z,1000.83
2023-02-16T22:55:04.431Z,1001.02
2023-02-16T23:00:04.290Z,1001.15
2023-02-16T23:05:04.152Z,1001.02
2023-02-16T23:10:04.249Z,1000.98
2023-02-16T23:15:03.133Z,1001.04
2023-02-16T23:20:04.206Z,1001.19
2023-02-16T23:25:03.071Z,1001.16
2023-02-16T23:30:04.287Z,1001.15
2023-02-16T23:35:03.312Z,1001.24
2023-02-16T23:40:04.479Z,1001.36
2023-02-16T23:45:03.696Z,1001.46
2023-02-16T23:50:04.105Z,1001.43
2023-02-16T23:55:03.058Z,1001.48
